Edison, New Jersey
Current Conditions -  °F | °C
As of 9:15 AM on Monday 26 Jan 2015 (Local Time) from KLDJ Reporting Station
Light Snow Light Snow  
Wind Chill: 20°   Ceiling: 800
Heat Index: 29°   Visibility: 1.2mi
Dew Point: 24°   Wind: 9mph
Humidity: 81%   Direction: 90°E
Pressure: 30.03"   Gusts: NA
Location:  40.53°N, 74.39°W
Report Text: KLDJ 261415Z AUTO 09008KT 1 1/4SM -SN BKN008 OVC014 M02/M05 A3003 RMK AO2 T10191047
Loading
Personal Weather Stations






























Interactive Weather Map New forecast layout! Learn more

10-Day Weather Forecast

Advertisements
Track Severe Weather on mobile